Time;durP1;ratioP1;P1;durP2;ratioP2;P2;SDS_P1;SDS_P2;PMS_P1;PMS_P2;Temp;Humidity;BMP_temperature;BMP_pressure;BME280_temperature;BME280_humidity;BME280_pressure;Samples;Min_cycle;Max_cycle;Signal;HPM_P1;HPM_P2
2022/01/11 00:00:57;;;;;;;9.38;7.18;;;1.40;99.90;;;;;;5105231;27;20569;-57
2022/01/11 00:03:40;;;;;;;8.40;7.60;;;1.40;99.90;;;;;;5127336;27;21045;-57
2022/01/11 00:06:29;;;;;;;8.52;7.82;;;1.40;99.90;;;;;;5102614;27;20642;-57
2022/01/11 00:09:20;;;;;;;8.05;7.38;;;1.50;99.90;;;;;;5105353;27;20556;-57
2022/01/11 00:12:00;;;;;;;8.05;7.25;;;1.50;99.90;;;;;;5087726;27;20547;-58
2022/01/11 00:14:40;;;;;;;8.40;7.63;;;1.50;99.90;;;;;;5105281;27;20553;-57
2022/01/11 00:17:19;;;;;;;7.63;6.97;;;1.50;99.90;;;;;;5151837;27;20661;-57
2022/01/11 00:19:59;;;;;;;9.52;7.47;;;1.50;99.90;;;;;;5150313;27;20576;-57
2022/01/11 00:22:56;;;;;;;9.27;8.48;;;1.50;99.90;;;;;;5148217;27;20543;-57
2022/01/11 00:25:37;;;;;;;9.15;8.35;;;1.50;99.90;;;;;;5086541;28;20532;-57
2022/01/11 00:28:19;;;;;;;8.85;8.15;;;1.50;99.90;;;;;;5086781;28;20671;-57
2022/01/11 00:30:58;;;;;;;8.52;7.28;;;1.40;99.90;;;;;;5166138;27;20545;-57
2022/01/11 00:33:42;;;;;;;9.25;8.35;;;1.40;99.90;;;;;;5127492;27;20537;-57
2022/01/11 00:36:20;;;;;;;9.48;8.57;;;1.40;99.90;;;;;;5107589;27;20537;-57
2022/01/11 00:39:00;;;;;;;10.35;8.43;;;1.40;99.90;;;;;;5127615;27;20548;-57
2022/01/11 00:41:41;;;;;;;8.43;7.72;;;1.40;99.90;;;;;;5127396;27;20544;-57
2022/01/11 00:44:23;;;;;;;8.20;7.18;;;1.30;99.90;;;;;;5086283;28;21189;-57
2022/01/11 00:47:04;;;;;;;8.73;7.93;;;1.30;99.90;;;;;;5107268;27;20670;-57
2022/01/11 00:49:43;;;;;;;8.25;7.43;;;1.30;99.90;;;;;;5148243;27;20680;-57
2022/01/11 00:52:23;;;;;;;9.63;8.73;;;1.30;99.90;;;;;;5101863;27;20576;-57
2022/01/11 00:55:03;;;;;;;9.40;8.40;;;1.30;99.90;;;;;;5146826;27;21066;-57
2022/01/11 00:57:42;;;;;;;9.05;8.25;;;1.30;99.90;;;;;;5107200;27;20658;-57
2022/01/11 01:00:22;;;;;;;9.13;8.32;;;1.40;99.90;;;;;;5127552;27;20545;-57
2022/01/11 01:03:02;;;;;;;8.18;7.47;;;1.40;99.90;;;;;;5086552;28;20557;-57
2022/01/11 01:05:42;;;;;;;8.48;7.78;;;1.40;99.90;;;;;;5106470;27;21207;-57
2022/01/11 01:08:22;;;;;;;7.63;6.93;;;1.40;99.90;;;;;;5148600;27;20546;-57
2022/01/11 01:11:01;;;;;;;7.78;7.07;;;1.40;99.90;;;;;;5148287;27;20662;-57
2022/01/11 01:13:41;;;;;;;7.50;6.80;;;1.30;99.90;;;;;;5148041;27;20538;-57
2022/01/11 01:16:21;;;;;;;7.15;6.50;;;1.30;99.90;;;;;;5081661;28;20676;-57
2022/01/11 01:19:01;;;;;;;7.20;6.60;;;1.30;99.90;;;;;;5126309;27;20535;-57
2022/01/11 01:21:41;;;;;;;7.00;6.38;;;1.30;99.90;;;;;;5127925;27;20544;-57
2022/01/11 01:24:21;;;;;;;7.28;6.57;;;1.30;99.90;;;;;;5085098;27;20563;-57
2022/01/11 01:27:00;;;;;;;7.20;6.65;;;1.30;99.90;;;;;;5082963;28;20853;-57
2022/01/11 01:29:41;;;;;;;6.82;6.22;;;1.30;99.90;;;;;;5148492;27;20624;-57
2022/01/11 01:32:20;;;;;;;6.50;6.00;;;1.30;99.90;;;;;;5101442;27;20577;-57
2022/01/11 01:35:03;;;;;;;7.38;6.72;;;1.20;99.90;;;;;;5147437;27;21078;-57
2022/01/11 01:37:43;;;;;;;8.23;6.53;;;1.20;99.90;;;;;;5127535;27;20544;-57
2022/01/11 01:40:23;;;;;;;6.88;6.30;;;1.20;99.90;;;;;;5106996;27;20663;-57
2022/01/11 01:43:03;;;;;;;6.88;6.28;;;1.20;99.90;;;;;;5087306;28;20547;-57
2022/01/11 01:45:44;;;;;;;7.53;6.93;;;1.20;99.90;;;;;;5084416;27;20567;-57
2022/01/11 01:48:24;;;;;;;6.22;5.63;;;1.20;99.90;;;;;;5091029;27;21387;-57
2022/01/11 01:51:05;;;;;;;7.00;6.40;;;1.20;99.90;;;;;;5086231;27;20575;-57
2022/01/11 01:53:47;;;;;;;7.68;6.97;;;1.30;99.90;;;;;;5106263;27;21186;-57
2022/01/11 01:56:28;;;;;;;7.30;6.70;;;1.30;99.90;;;;;;5086756;28;20559;-57
2022/01/11 01:59:08;;;;;;;6.55;5.95;;;1.30;99.90;;;;;;5150814;27;20669;-57
2022/01/11 02:01:48;;;;;;;6.90;6.20;;;1.30;99.90;;;;;;5086379;27;20554;-58
2022/01/11 02:04:28;;;;;;;6.82;6.22;;;1.20;99.90;;;;;;5085686;27;21100;-57
2022/01/11 02:07:08;;;;;;;6.07;5.55;;;1.20;99.90;;;;;;5105887;27;20926;-58
2022/01/11 02:09:47;;;;;;;6.55;5.95;;;1.20;99.90;;;;;;5106065;27;21206;-57
2022/01/11 02:12:28;;;;;;;6.55;6.03;;;1.20;99.90;;;;;;5118946;27;20544;-57
2022/01/11 02:15:08;;;;;;;5.88;5.38;;;1.20;99.90;;;;;;5082861;27;20566;-57
2022/01/11 02:17:47;;;;;;;6.78;6.28;;;1.20;99.90;;;;;;5127704;27;20532;-57
2022/01/11 02:20:27;;;;;;;5.97;5.47;;;1.20;99.90;;;;;;5148629;27;20661;-57
2022/01/11 02:23:07;;;;;;;5.97;5.45;;;1.20;99.90;;;;;;5087007;28;21213;-57
2022/01/11 02:25:47;;;;;;;6.95;6.25;;;1.20;99.90;;;;;;5127712;27;20548;-58
2022/01/11 02:28:28;;;;;;;6.97;5.70;;;1.10;99.90;;;;;;5107542;27;20674;-57
2022/01/11 02:31:12;;;;;;;7.05;6.35;;;1.20;99.90;;;;;;5086991;27;21049;-58
2022/01/11 02:33:56;;;;;;;5.63;5.13;;;1.20;99.90;;;;;;5107185;27;20662;-57
2022/01/11 02:36:37;;;;;;;6.00;5.50;;;1.20;99.90;;;;;;5127284;27;21161;-57
2022/01/11 02:39:17;;;;;;;6.18;5.07;;;1.10;99.90;;;;;;5106944;27;20553;-57
2022/01/11 02:42:00;;;;;;;6.13;5.53;;;1.10;99.90;;;;;;5124676;27;20560;-57
2022/01/11 02:44:40;;;;;;;5.97;5.47;;;1.10;99.90;;;;;;5122115;27;21244;-57
2022/01/11 02:47:19;;;;;;;6.40;5.80;;;1.10;99.90;;;;;;5085975;27;20934;-58
2022/01/11 02:49:59;;;;;;;5.50;5.00;;;1.10;99.90;;;;;;5151448;27;20582;-57
2022/01/11 02:52:39;;;;;;;6.70;6.10;;;1.10;99.90;;;;;;5106451;27;20674;-57
2022/01/11 02:55:19;;;;;;;6.05;5.45;;;1.10;99.90;;;;;;5079657;28;20688;-57
2022/01/11 02:57:58;;;;;;;5.32;4.85;;;1.20;99.90;;;;;;5112622;27;21081;-57
2022/01/11 03:00:39;;;;;;;5.80;5.30;;;1.10;99.90;;;;;;5125458;27;20891;-57
2022/01/11 03:03:22;;;;;;;6.00;5.45;;;1.10;99.90;;;;;;5116259;27;20537;-57
2022/01/11 03:06:03;;;;;;;5.07;4.68;;;1.10;99.90;;;;;;5086504;27;21153;-57
2022/01/11 03:08:46;;;;;;;5.68;5.18;;;1.10;99.90;;;;;;5148353;27;20569;-57
2022/01/11 03:11:32;;;;;;;5.68;5.18;;;1.10;99.90;;;;;;5107059;27;20662;-58
2022/01/11 03:14:12;;;;;;;5.63;5.05;;;1.00;99.90;;;;;;5086806;28;20655;-57
2022/01/11 03:16:52;;;;;;;6.00;5.50;;;1.10;99.90;;;;;;5103660;27;20677;-57
2022/01/11 03:19:32;;;;;;;5.63;5.13;;;1.00;99.90;;;;;;5126051;27;20691;-57
2022/01/11 03:22:11;;;;;;;6.25;5.75;;;1.10;99.90;;;;;;5140582;27;21170;-58
2022/01/11 03:24:51;;;;;;;7.10;6.20;;;1.10;99.90;;;;;;5086047;28;20672;-57
2022/01/11 03:27:31;;;;;;;7.05;6.38;;;1.10;99.90;;;;;;5107032;27;20542;-58
2022/01/11 03:30:12;;;;;;;6.50;5.78;;;1.10;99.90;;;;;;5087162;27;20554;-57
2022/01/11 03:32:51;;;;;;;5.45;4.95;;;1.10;99.90;;;;;;5087096;27;20570;-57
2022/01/11 03:35:31;;;;;;;5.68;5.18;;;1.10;99.90;;;;;;5086986;27;20998;-58
2022/01/11 03:38:12;;;;;;;5.22;4.72;;;1.10;99.90;;;;;;5087097;27;20675;-57
2022/01/11 03:40:52;;;;;;;5.10;4.53;;;1.10;99.90;;;;;;5087090;28;20691;-57
2022/01/11 03:43:32;;;;;;;4.78;4.28;;;1.10;99.90;;;;;;5086565;28;20543;-57
2022/01/11 03:46:11;;;;;;;5.47;4.78;;;1.10;99.90;;;;;;5086245;27;21148;-57
2022/01/11 03:48:51;;;;;;;6.22;5.65;;;1.00;99.90;;;;;;5148287;27;20535;-57
2022/01/11 03:51:33;;;;;;;5.18;4.78;;;1.00;99.90;;;;;;5127401;27;20536;-57
2022/01/11 03:54:15;;;;;;;4.70;4.30;;;1.00;99.90;;;;;;5107616;27;20541;-57
2022/01/11 03:56:56;;;;;;;5.75;5.15;;;1.00;99.90;;;;;;5086854;28;20656;-57
2022/01/11 03:59:35;;;;;;;5.32;4.75;;;1.00;99.90;;;;;;5154120;27;20667;-57
2022/01/11 04:02:15;;;;;;;4.97;4.57;;;1.00;99.90;;;;;;5107643;27;20666;-57
2022/01/11 04:04:55;;;;;;;5.55;5.00;;;1.00;99.90;;;;;;5148189;27;20945;-57
2022/01/11 04:07:35;;;;;;;5.50;5.00;;;1.00;99.90;;;;;;5127663;27;20528;-57
2022/01/11 04:10:15;;;;;;;4.78;4.38;;;1.00;99.90;;;;;;5087403;28;20675;-57
2022/01/11 04:12:54;;;;;;;7.68;4.70;;;1.00;99.90;;;;;;5147276;27;20554;-57
2022/01/11 04:15:34;;;;;;;6.45;4.75;;;1.00;99.90;;;;;;5147840;27;20543;-57
2022/01/11 04:18:14;;;;;;;5.55;5.10;;;1.00;99.90;;;;;;5126231;27;20548;-57
2022/01/11 04:20:54;;;;;;;5.93;5.00;;;1.00;99.90;;;;;;5080584;27;21231;-57
2022/01/11 04:23:34;;;;;;;5.03;4.55;;;1.00;99.90;;;;;;5124069;27;20677;-57
2022/01/11 04:26:14;;;;;;;5.53;4.90;;;1.00;99.90;;;;;;5118025;27;20540;-58
2022/01/11 04:28:53;;;;;;;5.60;5.00;;;1.00;99.90;;;;;;5081850;28;20675;-57
2022/01/11 04:31:34;;;;;;;5.63;5.22;;;0.90;99.90;;;;;;5078263;28;20690;-57
2022/01/11 04:34:13;;;;;;;7.93;5.43;;;0.90;99.90;;;;;;5128595;27;20572;-57
2022/01/11 04:36:53;;;;;;;6.38;5.82;;;0.90;99.90;;;;;;5078759;27;20559;-57
2022/01/11 04:39:33;;;;;;;5.60;5.10;;;0.90;99.90;;;;;;5082950;28;20690;-57
2022/01/11 04:42:13;;;;;;;5.43;4.93;;;0.90;99.90;;;;;;5084188;28;20715;-58
2022/01/11 04:44:52;;;;;;;7.13;5.63;;;0.90;99.90;;;;;;5104646;27;20697;-57
2022/01/11 04:47:33;;;;;;;5.10;4.60;;;0.90;99.90;;;;;;5127725;27;20540;-57
2022/01/11 04:50:13;;;;;;;6.07;5.57;;;0.90;99.90;;;;;;5105686;27;20557;-57
2022/01/11 04:52:52;;;;;;;5.80;5.28;;;0.90;99.90;;;;;;5086264;28;20676;-57
2022/01/11 04:55:32;;;;;;;5.70;5.20;;;0.80;99.90;;;;;;5126833;27;20539;-58
2022/01/11 04:58:12;;;;;;;5.68;5.25;;;0.90;99.90;;;;;;5147688;27;20689;-57
2022/01/11 05:00:52;;;;;;;4.50;4.10;;;0.90;99.90;;;;;;5086390;27;21316;-57
2022/01/11 05:03:31;;;;;;;5.68;4.85;;;0.90;99.90;;;;;;5086708;27;21165;-57
2022/01/11 05:06:11;;;;;;;5.72;4.55;;;0.90;99.90;;;;;;5106583;27;20936;-57
2022/01/11 05:08:51;;;;;;;4.78;4.28;;;0.90;99.90;;;;;;5086574;28;20552;-57
2022/01/11 05:11:31;;;;;;;6.10;5.53;;;0.80;99.90;;;;;;5086273;28;20686;-57
2022/01/11 05:14:10;;;;;;;5.05;4.55;;;0.80;99.90;;;;;;5147960;27;20903;-57
2022/01/11 05:16:50;;;;;;;6.07;4.78;;;0.80;99.90;;;;;;5127301;27;20540;-57
2022/01/11 05:19:30;;;;;;;7.57;5.10;;;0.80;99.90;;;;;;5106581;27;20673;-58
2022/01/11 05:22:10;;;;;;;6.35;4.90;;;0.80;99.90;;;;;;5085148;27;20579;-57
2022/01/11 05:24:50;;;;;;;5.25;4.85;;;0.80;99.90;;;;;;5104213;27;21082;-57
2022/01/11 05:27:30;;;;;;;4.88;4.47;;;0.80;99.90;;;;;;5106328;27;20541;-57
2022/01/11 05:30:11;;;;;;;6.22;4.93;;;0.80;99.90;;;;;;5151228;27;20681;-57
2022/01/11 05:32:51;;;;;;;5.72;5.15;;;0.80;99.90;;;;;;5086245;28;20679;-57
2022/01/11 05:35:31;;;;;;;4.68;4.28;;;0.80;99.90;;;;;;5107525;27;20877;-57
2022/01/11 05:38:11;;;;;;;4.72;4.32;;;0.80;99.90;;;;;;5147740;27;20542;-58
2022/01/11 05:40:51;;;;;;;6.00;5.50;;;0.80;99.90;;;;;;5080858;28;20679;-57
2022/01/11 05:43:30;;;;;;;5.70;5.20;;;0.80;99.90;;;;;;5085932;27;20544;-57
2022/01/11 05:46:10;;;;;;;5.15;4.65;;;0.80;99.90;;;;;;5147500;27;20669;-57
2022/01/11 05:48:50;;;;;;;5.40;5.00;;;0.70;99.90;;;;;;5126472;27;21025;-57
2022/01/11 05:51:30;;;;;;;5.70;5.10;;;0.80;99.90;;;;;;5085108;28;20668;-58
2022/01/11 05:54:10;;;;;;;5.70;5.20;;;0.70;99.90;;;;;;5147664;27;20534;-57
2022/01/11 05:56:50;;;;;;;6.68;6.07;;;0.70;99.90;;;;;;5086311;28;20663;-57
2022/01/11 05:59:29;;;;;;;5.68;5.18;;;0.70;99.90;;;;;;5086249;28;20691;-57
2022/01/11 06:02:09;;;;;;;7.05;5.95;;;0.70;99.90;;;;;;5086630;28;21210;-57
2022/01/11 06:04:49;;;;;;;6.70;6.05;;;0.70;99.90;;;;;;5106881;27;20673;-58
2022/01/11 06:07:29;;;;;;;6.15;5.65;;;0.70;99.90;;;;;;5148305;27;20534;-57
2022/01/11 06:10:09;;;;;;;5.63;5.15;;;0.70;99.90;;;;;;5086000;27;20676;-58
2022/01/11 06:12:48;;;;;;;5.60;5.15;;;0.70;99.90;;;;;;5146986;27;20944;-58
2022/01/11 06:15:30;;;;;;;8.23;5.32;;;0.70;99.90;;;;;;5106305;27;21022;-59
2022/01/11 06:18:09;;;;;;;5.95;5.45;;;0.70;99.90;;;;;;5139851;22;20652;-59
2022/01/11 06:20:49;;;;;;;6.13;5.25;;;0.70;99.90;;;;;;5086280;28;20601;-59
2022/01/11 06:23:29;;;;;;;5.47;5.07;;;0.80;99.90;;;;;;5106218;27;20537;-59
2022/01/11 06:26:09;;;;;;;5.18;4.70;;;0.70;99.90;;;;;;5106236;27;20658;-59
2022/01/11 06:28:49;;;;;;;5.75;5.28;;;0.80;99.90;;;;;;5085720;28;20691;-59
2022/01/11 06:31:30;;;;;;;7.70;7.00;;;0.80;99.90;;;;;;5085594;28;21064;-59
2022/01/11 06:34:10;;;;;;;7.80;7.20;;;0.80;99.90;;;;;;5085321;28;20548;-58
2022/01/11 06:36:50;;;;;;;7.75;6.32;;;0.80;99.90;;;;;;5085752;27;20536;-58
2022/01/11 06:39:30;;;;;;;6.75;6.25;;;0.80;99.90;;;;;;5085495;27;20580;-57
2022/01/11 06:42:10;;;;;;;6.22;5.65;;;0.80;99.90;;;;;;5106263;27;20538;-58
2022/01/11 06:44:49;;;;;;;6.65;6.05;;;0.80;99.90;;;;;;5146677;27;20542;-58
2022/01/11 06:47:29;;;;;;;5.68;5.18;;;0.70;99.90;;;;;;5106401;27;20588;-58
2022/01/11 06:50:10;;;;;;;7.28;6.60;;;0.80;99.90;;;;;;5146725;27;20666;-58
2022/01/11 06:52:51;;;;;;;6.05;5.55;;;0.70;99.90;;;;;;5144861;27;20674;-58
2022/01/11 06:55:31;;;;;;;6.82;6.10;;;0.80;99.90;;;;;;5145614;27;20682;-58
2022/01/11 06:58:10;;;;;;;6.63;5.53;;;0.80;99.90;;;;;;5102971;27;20683;-58
2022/01/11 07:00:50;;;;;;;7.30;6.57;;;0.80;99.90;;;;;;5106362;27;21017;-58
2022/01/11 07:03:30;;;;;;;6.43;5.93;;;0.70;99.90;;;;;;5086068;28;20660;-58
2022/01/11 07:06:10;;;;;;;6.63;6.03;;;0.70;99.90;;;;;;5126636;27;20679;-58
2022/01/11 07:08:49;;;;;;;10.55;6.65;;;0.70;99.90;;;;;;5085622;27;20587;-58
2022/01/11 07:11:29;;;;;;;8.27;6.28;;;0.70;99.90;;;;;;5085987;28;20680;-58
2022/01/11 07:14:11;;;;;;;5.75;5.25;;;0.70;99.90;;;;;;5085551;27;20569;-58
2022/01/11 07:16:50;;;;;;;7.30;6.65;;;0.70;99.90;;;;;;5106569;27;20546;-58
2022/01/11 07:19:30;;;;;;;6.13;5.63;;;0.70;99.90;;;;;;5085854;27;20563;-58
2022/01/11 07:22:10;;;;;;;9.48;7.80;;;0.70;99.90;;;;;;5086400;28;21056;-59
2022/01/11 07:24:50;;;;;;;13.63;12.20;;;0.70;99.90;;;;;;5105987;27;21214;-57
2022/01/11 07:27:31;;;;;;;21.65;19.13;;;0.70;99.90;;;;;;5147802;27;20543;-58
2022/01/11 07:30:12;;;;;;;12.77;11.70;;;0.80;99.90;;;;;;5126791;27;21158;-58
2022/01/11 07:32:51;;;;;;;6.20;5.60;;;0.80;99.90;;;;;;5126865;27;21064;-58
2022/01/11 07:35:31;;;;;;;6.72;6.20;;;0.80;99.90;;;;;;5085991;28;20657;-58
2022/01/11 07:38:11;;;;;;;8.45;6.30;;;0.90;99.90;;;;;;5086130;27;20551;-58
2022/01/11 07:40:50;;;;;;;6.50;5.93;;;0.80;99.90;;;;;;5147556;27;20674;-58
2022/01/11 07:43:32;;;;;;;8.35;7.75;;;0.80;99.90;;;;;;5147548;27;20661;-58
2022/01/11 07:46:12;;;;;;;7.55;6.75;;;0.90;99.90;;;;;;5126594;27;20544;-59
2022/01/11 07:48:52;;;;;;;7.40;6.68;;;0.90;99.90;;;;;;5086193;27;20558;-58
2022/01/11 07:51:32;;;;;;;6.30;5.80;;;0.90;99.90;;;;;;5085800;28;20671;-58
2022/01/11 07:54:11;;;;;;;7.70;6.50;;;0.90;99.90;;;;;;5147442;27;20878;-58
2022/01/11 07:56:51;;;;;;;6.28;5.78;;;0.80;99.90;;;;;;5085378;28;21200;-58
2022/01/11 07:59:31;;;;;;;6.60;6.05;;;0.90;99.90;;;;;;5147699;27;20551;-58
2022/01/11 08:02:11;;;;;;;7.07;6.40;;;1.00;99.90;;;;;;5126794;27;20536;-58
2022/01/11 08:04:51;;;;;;;6.07;5.57;;;1.00;99.90;;;;;;5085692;27;20552;-58
2022/01/11 08:07:30;;;;;;;10.00;8.73;;;1.20;99.90;;;;;;5106621;27;20607;-58
2022/01/11 08:10:11;;;;;;;16.75;15.05;;;1.30;99.90;;;;;;5106155;27;20907;-58
2022/01/11 08:12:52;;;;;;;9.23;8.32;;;1.40;99.90;;;;;;5085784;27;21121;-58
2022/01/11 08:15:32;;;;;;;8.77;7.95;;;1.50;99.90;;;;;;5085775;27;20564;-58
2022/01/11 08:18:12;;;;;;;6.30;5.70;;;1.40;99.90;;;;;;5126825;27;20644;-58
2022/01/11 08:20:51;;;;;;;8.18;7.38;;;1.30;99.90;;;;;;5085887;27;20536;-58
2022/01/11 08:23:31;;;;;;;14.13;12.68;;;1.30;99.90;;;;;;5106277;27;20677;-58
2022/01/11 08:26:12;;;;;;;17.90;16.27;;;1.30;99.90;;;;;;5085716;28;20660;-58
2022/01/11 08:28:51;;;;;;;22.00;20.00;;;1.20;99.90;;;;;;5086585;28;20933;-58
2022/01/11 08:31:30;;;;;;;9.68;8.65;;;1.30;99.90;;;;;;5106295;27;20546;-58
2022/01/11 08:34:13;;;;;;;10.55;9.68;;;1.30;99.90;;;;;;5085900;27;20664;-58
2022/01/11 08:36:55;;;;;;;8.88;8.07;;;1.30;99.90;;;;;;5147530;27;20671;-58
2022/01/11 08:39:35;;;;;;;7.90;7.30;;;1.20;99.90;;;;;;5085050;27;20691;-58
2022/01/11 08:42:15;;;;;;;7.53;6.75;;;1.10;99.90;;;;;;5125909;27;20875;-58
2022/01/11 08:44:55;;;;;;;9.20;7.97;;;1.10;99.90;;;;;;5085135;27;21072;-58
2022/01/11 08:47:35;;;;;;;8.18;7.38;;;1.10;99.90;;;;;;5082966;28;20597;-58
2022/01/11 08:50:15;;;;;;;8.23;7.05;;;1.10;99.90;;;;;;5131454;27;20535;-58
2022/01/11 08:52:54;;;;;;;8.30;7.57;;;1.10;99.90;;;;;;5083932;27;20570;-58
2022/01/11 08:55:34;;;;;;;7.65;6.95;;;1.30;99.90;;;;;;5145406;27;20595;-58
2022/01/11 08:58:14;;;;;;;9.55;7.32;;;1.40;99.90;;;;;;5104110;27;20685;-57
2022/01/11 09:00:53;;;;;;;8.07;7.28;;;1.60;99.90;;;;;;5100291;27;20718;-58
2022/01/11 09:03:33;;;;;;;8.20;7.50;;;1.80;99.90;;;;;;5083341;27;20565;-58
2022/01/11 09:06:13;;;;;;;7.80;7.13;;;2.00;99.90;;;;;;5135086;27;20919;-58
2022/01/11 09:08:53;;;;;;;7.63;6.93;;;2.20;99.90;;;;;;5085280;27;20590;-58
2022/01/11 09:11:33;;;;;;;7.80;7.20;;;2.40;99.90;;;;;;5106797;27;21000;-58
2022/01/11 09:14:13;;;;;;;17.65;7.53;;;2.50;99.90;;;;;;5126330;27;20536;-58
2022/01/11 09:16:53;;;;;;;11.15;7.85;;;2.60;99.90;;;;;;5084402;28;20994;-57
2022/01/11 09:19:33;;;;;;;7.97;7.18;;;2.80;99.90;;;;;;5145711;27;20543;-58
2022/01/11 09:22:12;;;;;;;9.18;7.72;;;2.90;99.90;;;;;;5124700;27;20585;-58
2022/01/11 09:24:52;;;;;;;7.95;7.25;;;2.90;99.90;;;;;;5104290;27;20657;-57
2022/01/11 09:27:32;;;;;;;7.93;7.22;;;3.00;99.90;;;;;;5084542;27;20535;-58
2022/01/11 09:30:13;;;;;;;7.80;7.20;;;3.10;99.90;;;;;;5084824;28;20613;-57
2022/01/11 09:32:54;;;;;;;8.00;7.30;;;3.20;99.90;;;;;;5106568;27;21203;-57
2022/01/11 09:35:33;;;;;;;9.05;7.82;;;3.30;99.90;;;;;;5106368;27;20537;-58
2022/01/11 09:38:12;;;;;;;6.88;6.28;;;3.50;99.90;;;;;;5086672;27;20561;-57
2022/01/11 09:40:55;;;;;;;6.47;5.88;;;3.70;99.90;;;;;;5148524;27;20661;-57
2022/01/11 09:43:34;;;;;;;6.38;5.82;;;3.80;99.90;;;;;;5086816;27;20539;-57
2022/01/11 09:46:14;;;;;;;7.43;5.97;;;3.80;99.90;;;;;;5127290;27;20528;-57
2022/01/11 09:48:53;;;;;;;6.07;5.57;;;3.70;99.90;;;;;;5086853;28;20572;-57
2022/01/11 09:51:35;;;;;;;6.55;6.05;;;3.60;99.90;;;;;;5148182;27;20675;-57
2022/01/11 09:54:18;;;;;;;6.28;5.75;;;3.50;99.90;;;;;;5086541;28;20589;-57
2022/01/11 09:56:58;;;;;;;5.90;5.40;;;3.50;99.90;;;;;;5107106;27;20530;-57
2022/01/11 09:59:38;;;;;;;6.65;5.88;;;3.50;99.90;;;;;;5127176;27;20552;-57
2022/01/11 10:02:18;;;;;;;5.75;5.20;;;3.70;99.90;;;;;;5086640;27;20535;-57
2022/01/11 10:04:59;;;;;;;5.85;5.35;;;4.00;99.90;;;;;;5147477;27;20899;-57
2022/01/11 10:07:41;;;;;;;5.05;4.65;;;4.30;99.90;;;;;;5086173;28;20593;-57
2022/01/11 10:10:22;;;;;;;15.55;4.93;;;4.60;99.90;;;;;;5148273;27;20666;-58
2022/01/11 10:13:03;;;;;;;4.63;4.32;;;4.80;99.90;;;;;;5085837;28;20648;-57
2022/01/11 10:15:44;;;;;;;4.95;4.55;;;4.70;99.90;;;;;;5147634;27;20584;-57
2022/01/11 10:18:35;;;;;;;4.78;4.38;;;4.60;99.90;;;;;;5106395;27;20678;-57
2022/01/11 10:21:35;;;;;;;5.03;4.53;;;4.40;99.90;;;;;;5127024;27;20540;-57
2022/01/11 10:24:32;;;;;;;5.97;4.55;;;4.30;99.90;;;;;;5106552;27;20599;-57
2022/01/11 10:27:16;;;;;;;4.75;4.30;;;4.30;99.90;;;;;;5127064;27;20652;-57
2022/01/11 10:29:57;;;;;;;4.38;4.07;;;4.20;99.90;;;;;;5106396;27;20553;-57
2022/01/11 10:32:39;;;;;;;4.00;3.70;;;4.30;99.90;;;;;;5085713;28;20664;-58
2022/01/11 10:35:21;;;;;;;3.60;3.30;;;4.40;99.90;;;;;;5086226;28;20674;-57
2022/01/11 10:38:03;;;;;;;4.25;3.58;;;4.50;99.90;;;;;;5086414;27;20573;-57
2022/01/11 10:40:44;;;;;;;3.30;3.00;;;4.40;99.90;;;;;;5086718;27;20543;-57
2022/01/11 10:43:23;;;;;;;5.20;4.90;;;4.40;99.90;;;;;;5148202;27;20531;-58
2022/01/11 10:46:03;;;;;;;2.60;2.40;;;4.60;99.90;;;;;;5086464;27;21006;-57
2022/01/11 10:48:44;;;;;;;2.35;2.15;;;4.60;99.90;;;;;;5127383;27;20556;-58
2022/01/11 10:51:23;;;;;;;3.58;2.88;;;4.50;99.90;;;;;;5086389;28;20656;-57
2022/01/11 10:54:03;;;;;;;2.90;2.70;;;4.50;99.90;;;;;;5086437;27;20540;-58
2022/01/11 10:56:43;;;;;;;2.95;2.75;;;4.60;99.90;;;;;;5106649;27;21065;-58
2022/01/11 10:59:22;;;;;;;2.83;2.63;;;4.50;99.90;;;;;;5161083;27;21052;-57
2022/01/11 11:02:02;;;;;;;2.50;2.30;;;4.50;99.90;;;;;;5106441;27;20669;-57
2022/01/11 11:04:42;;;;;;;2.80;2.60;;;4.60;99.90;;;;;;5125644;27;20661;-57
2022/01/11 11:07:23;;;;;;;2.80;2.60;;;4.60;99.90;;;;;;5137998;27;20620;-57
2022/01/11 11:10:04;;;;;;;3.35;3.15;;;4.70;99.90;;;;;;5072346;27;21101;-57
2022/01/11 11:12:43;;;;;;;3.30;3.10;;;4.80;99.90;;;;;;5135952;27;20584;-57
2022/01/11 11:15:30;;;;;;;3.05;2.85;;;4.60;99.90;;;;;;5156416;27;20596;-57
2022/01/11 11:18:30;;;;;;;4.43;4.03;;;4.30;99.90;;;;;;5123550;27;20687;-57
2022/01/11 11:21:15;;;;;;;4.32;4.03;;;4.30;99.90;;;;;;5126745;27;21141;-57
2022/01/11 11:23:56;;;;;;;4.13;3.83;;;4.30;99.90;;;;;;5126852;27;20536;-57
2022/01/11 11:26:38;;;;;;;4.25;3.90;;;4.40;99.90;;;;;;5085720;28;20667;-57
2022/01/11 11:29:19;;;;;;;4.05;3.75;;;4.60;99.90;;;;;;5126490;27;20990;-58
2022/01/11 11:31:59;;;;;;;3.92;3.63;;;4.70;99.90;;;;;;5124302;27;20867;-57
2022/01/11 11:34:39;;;;;;;1.90;1.80;;;4.80;99.90;;;;;;5100815;27;20575;-57
2022/01/11 11:37:23;;;;;;;2.30;2.10;;;4.80;99.90;;;;;;5085439;27;20573;-57
2022/01/11 11:40:05;;;;;;;2.20;2.10;;;4.70;99.90;;;;;;5105444;27;20672;-58
2022/01/11 11:42:46;;;;;;;3.95;3.65;;;4.60;99.90;;;;;;5077739;22;21273;-57
2022/01/11 11:45:28;;;;;;;3.35;3.05;;;4.30;99.90;;;;;;5075229;27;20655;-58
2022/01/11 11:48:09;;;;;;;3.60;3.30;;;4.00;99.90;;;;;;5104480;27;21066;-58
2022/01/11 11:50:52;;;;;;;3.92;3.30;;;3.90;99.90;;;;;;5083727;27;20543;-58
2022/01/11 11:53:35;;;;;;;2.30;2.10;;;3.90;99.90;;;;;;5084882;28;20656;-57
2022/01/11 11:56:17;;;;;;;3.35;2.67;;;4.10;99.90;;;;;;5083459;28;20652;-57
2022/01/11 11:58:58;;;;;;;2.85;2.65;;;4.50;99.90;;;;;;5074523;28;20715;-57
2022/01/11 12:01:42;;;;;;;3.17;2.47;;;4.80;99.90;;;;;;5124290;27;20971;-57
2022/01/11 12:04:53;;;;;;;2.67;2.47;;;4.80;99.90;;;;;;5103002;27;21101;-57
2022/01/11 12:07:37;;;;;;;2.63;2.42;;;4.90;99.90;;;;;;5082610;27;20565;-58
2022/01/11 12:10:28;;;;;;;2.67;2.47;;;4.60;99.90;;;;;;5103527;27;20915;-58
2022/01/11 12:13:07;;;;;;;2.50;2.40;;;4.30;99.90;;;;;;5064581;27;21158;-58
2022/01/11 12:15:47;;;;;;;2.90;2.70;;;3.80;99.90;;;;;;5142982;27;20550;-58
2022/01/11 12:18:42;;;;;;;2.60;2.40;;;3.50;99.90;;;;;;5083205;27;20557;-58
2022/01/11 12:21:23;;;;;;;3.08;2.72;;;3.20;99.90;;;;;;5111564;27;20871;-58
2022/01/11 12:24:02;;;;;;;4.13;2.33;;;2.90;99.90;;;;;;5122521;27;20981;-58
2022/01/11 12:26:42;;;;;;;2.90;2.67;;;2.60;99.90;;;;;;5081864;27;20575;-58
2022/01/11 12:29:28;;;;;;;2.58;2.38;;;2.40;99.90;;;;;;5117210;27;20576;-58
2022/01/11 12:32:09;;;;;;;2.35;2.15;;;2.20;99.90;;;;;;5072894;27;20583;-58
2022/01/11 12:34:58;;;;;;;2.08;1.98;;;2.00;99.90;;;;;;5077237;27;20733;-58
2022/01/11 12:37:41;;;;;;;2.10;2.00;;;1.90;99.90;;;;;;5107909;27;20541;-58
2022/01/11 12:40:30;;;;;;;2.53;2.33;;;1.90;99.90;;;;;;5081132;28;20680;-58
2022/01/11 12:43:17;;;;;;;4.20;2.83;;;1.90;99.90;;;;;;5064148;28;21061;-58
2022/01/11 12:46:05;;;;;;;2.60;2.40;;;2.00;99.90;;;;;;5081370;27;20557;-58
2022/01/11 12:49:06;;;;;;;3.47;2.63;;;2.30;99.90;;;;;;5145541;27;21006;-58
2022/01/11 12:51:51;;;;;;;2.60;2.38;;;2.80;99.90;;;;;;5076236;28;20685;-58
2022/01/11 12:54:33;;;;;;;2.70;2.50;;;3.20;99.90;;;;;;5102655;27;20669;-58
2022/01/11 12:57:17;;;;;;;2.65;2.45;;;3.60;99.90;;;;;;5083248;27;20601;-58
2022/01/11 12:59:58;;;;;;;3.38;3.08;;;3.80;99.90;;;;;;5083208;27;20523;-58
2022/01/11 13:02:39;;;;;;;4.15;3.30;;;3.80;99.90;;;;;;5069447;27;20590;-58
2022/01/11 13:05:21;;;;;;;3.70;3.40;;;3.50;99.90;;;;;;5122815;27;20544;-58
2022/01/11 13:08:02;;;;;;;2.80;2.60;;;3.20;99.90;;;;;;5083325;28;21185;-58
2022/01/11 13:10:42;;;;;;;2.95;2.72;;;3.00;99.90;;;;;;5135794;27;20679;-58
2022/01/11 13:13:26;;;;;;;3.33;3.03;;;2.90;99.90;;;;;;5103195;27;20530;-58
2022/01/11 13:16:05;;;;;;;4.45;4.05;;;2.60;99.90;;;;;;5135050;27;20660;-58
2022/01/11 13:18:45;;;;;;;3.53;3.25;;;2.30;99.90;;;;;;5135546;27;21038;-58
2022/01/11 13:21:25;;;;;;;2.65;2.45;;;2.20;99.90;;;;;;5082087;27;21255;-57
2022/01/11 13:24:22;;;;;;;3.00;2.80;;;2.10;99.90;;;;;;5083166;28;20672;-58
2022/01/11 13:27:08;;;;;;;3.28;2.95;;;2.10;99.90;;;;;;5083342;28;20672;-59
2022/01/11 13:29:47;;;;;;;9.40;2.47;;;2.10;99.90;;;;;;5083220;27;20543;-58
2022/01/11 13:32:30;;;;;;;3.05;2.80;;;2.10;99.90;;;;;;5111013;27;20525;-59
2022/01/11 13:35:13;;;;;;;2.65;2.45;;;2.10;99.90;;;;;;5081113;27;21087;-57
2022/01/11 13:37:52;;;;;;;2.78;2.58;;;2.00;99.90;;;;;;5084047;27;20539;-58
2022/01/11 13:40:32;;;;;;;3.85;2.88;;;1.90;99.90;;;;;;5135015;27;20709;-58
2022/01/11 13:43:14;;;;;;;4.70;4.00;;;1.80;99.90;;;;;;5063469;27;20556;-58
2022/01/11 13:45:54;;;;;;;3.28;2.97;;;1.70;99.90;;;;;;5080752;27;20913;-58
2022/01/11 13:48:36;;;;;;;3.10;2.90;;;1.60;99.90;;;;;;5082969;27;20543;-58
2022/01/11 13:51:23;;;;;;;2.20;1.95;;;1.50;99.90;;;;;;5102563;27;20557;-58
2022/01/11 13:54:04;;;;;;;2.40;2.20;;;1.40;99.90;;;;;;5115411;27;20545;-58
2022/01/11 13:56:45;;;;;;;2.90;2.60;;;1.30;99.90;;;;;;5082409;28;20680;-58
2022/01/11 13:59:29;;;;;;;2.25;2.05;;;1.30;99.90;;;;;;5081945;27;21026;-58
2022/01/11 14:02:13;;;;;;;2.70;2.50;;;1.30;99.90;;;;;;5145115;27;21205;-58
2022/01/11 14:04:55;;;;;;;2.72;2.10;;;1.40;99.90;;;;;;5143528;27;20661;-58
2022/01/11 14:07:36;;;;;;;2.05;1.80;;;1.40;99.90;;;;;;5083540;28;21019;-58